Time;durP1;ratioP1;P1;durP2;ratioP2;P2;SDS_P1;SDS_P2;PMS_P1;PMS_P2;Temp;Humidity;BMP_temperature;BMP_pressure;BME280_temperature;BME280_humidity;BME280_pressure;Samples;Min_cycle;Max_cycle;Signal;HPM_P1;HPM_P2
2022/07/08 00:00:28;;;;;;;4.63;2.73;;;;;;;19.09;80.42;99130.66;4112158;28;20643;-88
2022/07/08 00:02:31;;;;;;;3.90;3.13;;;;;;;19.08;80.69;99133.44;4123606;28;20745;-88
2022/07/08 00:04:35;;;;;;;3.20;2.63;;;;;;;19.02;78.86;99131.31;4106800;28;24305;-88
2022/07/08 00:06:38;;;;;;;3.40;2.50;;;;;;;19.00;79.48;99130.56;4125095;28;20673;-88
2022/07/08 00:08:41;;;;;;;4.10;2.90;;;;;;;18.94;78.82;99142.50;4123484;28;20683;-88
2022/07/08 00:10:44;;;;;;;3.43;2.83;;;;;;;18.89;79.51;99128.81;4121771;28;20736;-88
2022/07/08 00:12:48;;;;;;;5.03;3.10;;;;;;;18.88;78.95;99128.97;4121344;28;20670;-88
2022/07/08 00:14:51;;;;;;;4.40;2.97;;;;;;;18.83;78.50;99139.09;4113915;28;20682;-88
2022/07/08 00:16:54;;;;;;;5.10;3.80;;;;;;;18.78;78.22;99138.66;4128399;28;20640;-88
2022/07/08 00:18:58;;;;;;;5.57;3.53;;;;;;;18.75;77.52;99140.69;4126098;28;20630;-88
2022/07/08 00:21:01;;;;;;;5.53;3.67;;;;;;;18.67;76.37;99144.00;4109713;28;20635;-88
2022/07/08 00:23:04;;;;;;;4.50;3.37;;;;;;;18.62;76.97;99135.63;4113693;28;21233;-87
2022/07/08 00:25:08;;;;;;;4.67;3.70;;;;;;;18.58;77.08;99139.50;4095803;28;20675;-88
2022/07/08 00:27:11;;;;;;;6.43;4.23;;;;;;;18.55;76.84;99138.91;4128222;28;20631;-88
2022/07/08 00:29:15;;;;;;;9.23;4.10;;;;;;;18.53;77.74;99141.66;4130367;28;20630;-87
2022/07/08 00:31:18;;;;;;;9.40;3.80;;;;;;;18.51;77.04;99142.78;4128533;28;20658;-88
2022/07/08 00:33:21;;;;;;;5.03;3.77;;;;;;;18.48;77.26;99140.41;4109696;28;20669;-88
2022/07/08 00:35:25;;;;;;;4.93;3.50;;;;;;;18.43;76.76;99148.69;4113319;28;20719;-88
2022/07/08 00:37:28;;;;;;;6.73;4.30;;;;;;;18.41;77.13;99148.97;4122920;28;20707;-87
2022/07/08 00:39:31;;;;;;;7.20;4.10;;;;;;;18.38;77.11;99152.69;4111084;28;21347;-88
2022/07/08 00:41:34;;;;;;;5.70;3.70;;;;;;;18.36;77.48;99157.25;4112194;28;20640;-87
2022/07/08 00:43:39;;;;;;;8.20;3.87;;;;;;;18.36;77.75;99157.25;4112666;28;20633;-88
2022/07/08 00:45:44;;;;;;;6.07;3.53;;;;;;;18.36;77.51;99166.97;4110825;28;20703;-88
2022/07/08 00:47:47;;;;;;;6.40;4.60;;;;;;;18.35;78.24;99173.25;4109007;28;20689;-87
2022/07/08 00:49:50;;;;;;;6.30;3.90;;;;;;;18.34;77.52;99169.72;4128489;28;20644;-87
2022/07/08 00:51:53;;;;;;;4.77;3.97;;;;;;;18.33;77.46;99165.44;4109922;28;20638;-87
2022/07/08 00:53:57;;;;;;;5.77;4.03;;;;;;;18.34;77.79;99167.09;4128498;28;21222;-88
2022/07/08 00:56:01;;;;;;;4.20;3.43;;;;;;;18.35;77.70;99175.88;4130124;28;20701;-88
2022/07/08 00:58:04;;;;;;;8.70;3.83;;;;;;;18.35;78.11;99181.16;4105325;28;20722;-88
2022/07/08 01:00:08;;;;;;;5.17;3.80;;;;;;;18.36;78.51;99178.41;4124701;28;20640;-88
2022/07/08 01:02:13;;;;;;;5.53;3.50;;;;;;;18.36;77.74;99181.03;4111217;28;21488;-88
2022/07/08 01:04:16;;;;;;;6.97;3.90;;;;;;;18.36;77.97;99169.59;4106967;28;21137;-88
2022/07/08 01:06:19;;;;;;;6.27;3.70;;;;;;;18.35;77.97;99173.25;4125792;28;22228;-87
2022/07/08 01:08:22;;;;;;;7.43;4.00;;;;;;;18.33;76.63;99170.72;4111937;28;21200;-88
2022/07/08 01:10:25;;;;;;;5.13;3.60;;;;;;;18.37;77.24;99173.94;4127616;28;20676;-88
2022/07/08 01:12:28;;;;;;;12.47;4.60;;;;;;;18.30;76.68;99178.06;4110222;28;20622;-87
2022/07/08 01:14:31;;;;;;;7.33;4.40;;;;;;;18.27;76.90;99178.31;4128255;28;21254;-87
2022/07/08 01:16:36;;;;;;;5.93;3.97;;;;;;;18.25;76.51;99178.44;4111240;28;20692;-88
2022/07/08 01:18:41;;;;;;;5.60;3.90;;;;;;;18.24;76.68;99179.41;4128279;28;20655;-87
2022/07/08 01:20:47;;;;;;;6.90;4.27;;;;;;;18.25;77.01;99180.22;4113501;28;21068;-87
2022/07/08 01:22:50;;;;;;;4.60;3.40;;;;;;;18.22;76.66;99178.69;4109618;28;21032;-87
2022/07/08 01:24:53;;;;;;;7.97;4.03;;;;;;;18.21;76.90;99176.19;4111109;28;20645;-88
2022/07/08 01:26:57;;;;;;;5.37;3.90;;;;;;;18.18;77.05;99179.06;4111726;28;20688;-88
2022/07/08 01:29:00;;;;;;;8.30;4.10;;;;;;;18.17;76.39;99180.03;4125975;28;21219;-87
2022/07/08 01:31:04;;;;;;;5.50;3.97;;;;;;;18.16;76.66;99178.34;4129155;28;20641;-87
2022/07/08 01:33:07;;;;;;;7.40;5.20;;;;;;;18.13;76.77;99178.59;4126053;28;20632;-88
2022/07/08 01:35:10;;;;;;;5.90;3.70;;;;;;;18.10;77.33;99179.66;4107979;28;20649;-88
2022/07/08 01:37:15;;;;;;;5.40;3.93;;;;;;;18.08;77.66;99181.56;4114719;28;20637;-87
2022/07/08 01:39:20;;;;;;;5.10;4.13;;;;;;;18.07;77.44;99186.97;4125934;28;21256;-87
2022/07/08 01:41:24;;;;;;;8.73;3.97;;;;;;;18.05;78.19;99179.16;4123945;28;20677;-87
2022/07/08 01:43:27;;;;;;;6.70;4.50;;;;;;;18.03;77.13;99185.56;4108250;28;20707;-87
2022/07/08 01:45:30;;;;;;;10.67;4.63;;;;;;;18.01;78.14;99190.09;4126116;28;20636;-87
2022/07/08 01:47:33;;;;;;;6.20;3.80;;;;;;;17.99;78.39;99192.03;4111956;28;21112;-87
2022/07/08 01:49:36;;;;;;;4.87;3.47;;;;;;;17.91;76.65;99199.75;4127842;28;20641;-87
2022/07/08 01:51:39;;;;;;;6.77;3.87;;;;;;;17.87;77.41;99198.28;4108341;28;20632;-87
2022/07/08 01:53:44;;;;;;;7.50;4.27;;;;;;;17.86;77.35;99211.63;4110871;28;20652;-87
2022/07/08 01:55:47;;;;;;;8.70;4.23;;;;;;;17.83;77.20;99207.44;4128637;28;21253;-87
2022/07/08 01:57:50;;;;;;;6.17;3.53;;;;;;;17.81;77.84;99208.50;4124707;28;20644;-88
2022/07/08 01:59:53;;;;;;;4.77;3.23;;;;;;;17.81;77.31;99206.69;4111626;28;21004;-88
2022/07/08 02:01:56;;;;;;;8.30;3.90;;;;;;;17.82;76.83;99215.47;4125388;28;20644;-88
2022/07/08 02:04:01;;;;;;;6.50;3.53;;;;;;;17.82;77.34;99216.31;4107711;28;21058;-88
2022/07/08 02:06:04;;;;;;;4.37;3.20;;;;;;;17.82;77.38;99218.94;4108752;28;21356;-87
2022/07/08 02:08:07;;;;;;;7.67;3.03;;;;;;;17.79;75.48;99215.72;4111187;28;20748;-88
2022/07/08 02:10:12;;;;;;;7.20;3.17;;;;;;;17.71;75.52;99213.69;4106929;28;20637;-87
2022/07/08 02:12:19;;;;;;;6.17;3.03;;;;;;;17.69;74.64;99212.13;4125141;28;20643;-88
2022/07/08 02:14:23;;;;;;;5.40;2.70;;;;;;;17.59;71.94;99216.44;4109014;28;20647;-88
2022/07/08 02:16:26;;;;;;;4.20;2.10;;;;;;;17.51;72.08;99210.94;4109106;28;20637;-88
2022/07/08 02:18:29;;;;;;;3.93;2.10;;;;;;;17.55;72.13;99215.84;4125252;28;20664;-87
2022/07/08 02:20:33;;;;;;;5.30;2.47;;;;;;;17.49;71.58;99218.97;4127812;28;20633;-87
2022/07/08 02:22:36;;;;;;;8.60;2.30;;;;;;;17.34;71.45;99218.50;4129983;28;20699;-87
2022/07/08 02:24:39;;;;;;;4.37;2.33;;;;;;;17.32;71.94;99225.66;4111743;28;20632;-88
2022/07/08 02:26:44;;;;;;;5.47;2.33;;;;;;;17.36;72.68;99220.03;4113916;28;20620;-87
2022/07/08 02:28:47;;;;;;;5.13;2.60;;;;;;;17.37;72.57;99223.53;4111161;28;20637;-88
2022/07/08 02:30:50;;;;;;;4.67;2.47;;;;;;;17.33;71.08;99222.91;4108453;28;21194;-88
2022/07/08 02:32:53;;;;;;;9.20;3.30;;;;;;;17.28;70.87;99225.06;4125534;28;21241;-87
2022/07/08 02:34:57;;;;;;;5.57;2.03;;;;;;;17.26;71.51;99220.84;4112681;28;20637;-88
2022/07/08 02:37:00;;;;;;;5.13;2.33;;;;;;;17.24;71.82;99217.50;4110444;28;20648;-87
2022/07/08 02:39:03;;;;;;;5.83;2.63;;;;;;;17.23;71.02;99229.88;4124692;28;20753;-87
2022/07/08 02:41:06;;;;;;;6.17;2.47;;;;;;;17.15;72.17;99226.09;4126703;28;20670;-87
2022/07/08 02:43:11;;;;;;;7.33;2.33;;;;;;;17.12;71.19;99224.53;4107323;28;20625;-87
2022/07/08 02:45:14;;;;;;;7.70;2.43;;;;;;;17.10;71.89;99226.44;4108263;28;20668;-87
2022/07/08 02:47:17;;;;;;;6.47;2.40;;;;;;;17.09;71.54;99235.31;4126441;28;20647;-87
2022/07/08 02:49:20;;;;;;;6.97;2.50;;;;;;;17.13;71.75;99234.13;4110388;28;20636;-87
2022/07/08 02:51:23;;;;;;;3.93;2.20;;;;;;;17.17;71.21;99232.06;4110800;28;20653;-88
2022/07/08 02:53:26;;;;;;;6.30;2.20;;;;;;;17.17;72.50;99245.25;4126140;28;20644;-88
2022/07/08 02:55:29;;;;;;;7.13;2.50;;;;;;;17.16;71.87;99230.41;4126226;28;20644;-87
2022/07/08 02:57:32;;;;;;;5.33;2.17;;;;;;;17.16;73.28;99243.59;4124709;28;20648;-87
2022/07/08 02:59:37;;;;;;;5.10;2.40;;;;;;;17.16;73.57;99247.06;4125678;28;20992;-87
2022/07/08 03:01:40;;;;;;;6.07;2.57;;;;;;;17.14;73.30;99240.25;4124565;28;20650;-87
2022/07/08 03:03:43;;;;;;;6.83;2.50;;;;;;;17.12;73.91;99252.69;4109581;28;20746;-87
2022/07/08 03:05:46;;;;;;;5.93;2.23;;;;;;;17.10;73.85;99251.97;4112144;28;21932;-87
2022/07/08 03:07:49;;;;;;;7.63;2.70;;;;;;;17.08;73.86;99249.44;4128026;28;20669;-87
2022/07/08 03:09:52;;;;;;;5.93;2.67;;;;;;;17.07;73.30;99252.19;4127242;28;20669;-87
2022/07/08 03:11:55;;;;;;;7.60;3.03;;;;;;;17.06;73.50;99261.06;4126559;28;20766;-87
2022/07/08 03:13:58;;;;;;;5.00;2.43;;;;;;;17.06;73.46;99261.06;4123149;28;20639;-87
2022/07/08 03:16:08;;;;;;;5.70;2.67;;;;;;;16.93;74.50;99265.59;4112194;28;20726;-87
2022/07/08 03:18:12;;;;;;;7.07;2.50;;;;;;;16.86;72.78;99266.16;4104084;28;20653;-87
2022/07/08 03:20:15;;;;;;;6.00;3.03;;;;;;;16.79;73.10;99265.75;4108004;28;21282;-87
2022/07/08 03:22:18;;;;;;;5.63;2.70;;;;;;;16.78;74.40;99263.25;4127663;28;20640;-87
2022/07/08 03:24:21;;;;;;;5.40;2.63;;;;;;;16.78;74.84;99266.72;4108449;28;20628;-87
2022/07/08 03:26:24;;;;;;;6.90;2.60;;;;;;;16.78;75.83;99273.78;4111555;28;20624;-87
2022/07/08 03:28:27;;;;;;;5.40;2.80;;;;;;;16.77;75.81;99280.84;4114129;28;21229;-87
2022/07/08 03:30:31;;;;;;;6.03;2.90;;;;;;;16.79;74.65;99286.84;4124824;28;20694;-87
2022/07/08 03:32:35;;;;;;;4.70;2.53;;;;;;;16.75;74.01;99276.66;4127903;28;20643;-87
2022/07/08 03:34:38;;;;;;;7.90;2.60;;;;;;;16.72;76.50;99283.00;4125767;28;20824;-88
2022/07/08 03:36:41;;;;;;;6.00;2.80;;;;;;;16.69;75.83;99283.22;4108740;28;20647;-87
2022/07/08 03:38:45;;;;;;;4.93;2.20;;;;;;;16.69;74.80;99279.75;4126166;28;21016;-87
2022/07/08 03:43:08;;;;;;;5.47;2.60;;;;;;;16.63;77.03;99294.22;4109858;28;20647;-87
2022/07/08 03:45:11;;;;;;;6.67;3.13;;;;;;;16.61;76.54;99295.25;4122722;28;21301;-87
2022/07/08 03:47:14;;;;;;;7.60;2.87;;;;;;;16.59;76.06;99292.75;4123748;28;20658;-87
2022/07/08 03:49:19;;;;;;;8.80;2.80;;;;;;;16.58;75.49;99295.50;4128425;28;20741;-87
2022/07/08 03:51:23;;;;;;;5.37;2.77;;;;;;;16.57;77.53;99305.19;4116173;28;20635;-87
2022/07/08 03:53:26;;;;;;;5.40;2.70;;;;;;;16.57;75.53;99304.38;4129394;28;20662;-87
2022/07/08 03:55:29;;;;;;;6.10;3.00;;;;;;;16.57;77.20;99305.19;4129692;28;21069;-87
2022/07/08 03:57:32;;;;;;;8.03;3.27;;;;;;;16.55;76.59;99299.22;4108800;28;20735;-87
2022/07/08 03:59:35;;;;;;;4.83;2.97;;;;;;;16.55;76.45;99308.88;4126733;28;20671;-87
2022/07/08 04:01:38;;;;;;;8.27;3.50;;;;;;;16.55;77.18;99312.38;4113254;28;20635;-87
2022/07/08 04:03:41;;;;;;;6.93;3.00;;;;;;;16.55;77.41;99311.53;4129464;28;21225;-87
2022/07/08 04:05:46;;;;;;;12.13;3.20;;;;;;;16.54;78.25;99320.41;4113751;28;21676;-87
2022/07/08 04:07:49;;;;;;;6.03;3.30;;;;;;;16.53;77.77;99329.25;4112183;28;20646;-87
2022/07/08 04:09:52;;;;;;;6.67;3.00;;;;;;;16.52;78.38;99322.28;4116102;28;20631;-87
2022/07/08 04:11:55;;;;;;;8.17;2.90;;;;;;;16.54;77.53;99325.66;4128339;28;21021;-87
2022/07/08 04:13:58;;;;;;;7.27;3.00;;;;;;;16.55;77.20;99324.69;4127732;28;20924;-87
2022/07/08 04:16:02;;;;;;;5.77;2.57;;;;;;;16.56;77.51;99314.03;4111804;28;20639;-87
2022/07/08 04:18:05;;;;;;;8.77;2.90;;;;;;;16.58;78.08;99327.97;4110265;28;20663;-87
2022/07/08 04:20:09;;;;;;;3.83;2.57;;;;;;;16.60;79.52;99327.84;4129626;28;20668;-87
2022/07/08 04:22:14;;;;;;;7.90;3.10;;;;;;;16.58;79.70;99327.97;4129862;28;20623;-87
2022/07/08 04:24:17;;;;;;;7.33;2.90;;;;;;;16.58;77.77;99329.72;4114724;28;20662;-87
2022/07/08 04:26:20;;;;;;;6.87;2.77;;;;;;;16.58;77.49;99325.34;4111211;28;20693;-87
2022/07/08 04:28:23;;;;;;;8.27;3.43;;;;;;;16.56;78.22;99321.94;4126594;28;20638;-87
2022/07/08 04:30:26;;;;;;;5.67;2.93;;;;;;;16.55;78.59;99322.91;4106622;28;20642;-87
2022/07/08 04:32:29;;;;;;;7.03;3.10;;;;;;;16.55;78.47;99320.28;4130748;28;20649;-87
2022/07/08 04:34:32;;;;;;;5.27;2.27;;;;;;;16.57;78.38;99326.28;4113974;28;21244;-87
2022/07/08 04:36:35;;;;;;;7.43;2.80;;;;;;;16.57;78.45;99315.72;4111700;28;20695;-88
2022/07/08 04:38:42;;;;;;;4.20;2.57;;;;;;;16.58;78.16;99316.56;4114087;28;21120;-88
2022/07/08 04:40:46;;;;;;;5.93;2.90;;;;;;;16.60;78.47;99333.94;4128015;28;20729;-87
2022/07/08 04:42:49;;;;;;;5.70;2.87;;;;;;;16.61;77.39;99332.16;4127647;28;20690;-87
2022/07/08 04:44:52;;;;;;;6.40;3.00;;;;;;;16.62;78.23;99333.84;4126909;28;20638;-87
2022/07/08 04:46:55;;;;;;;7.20;2.63;;;;;;;16.63;76.86;99333.72;4108229;28;20632;-87
2022/07/08 04:48:58;;;;;;;5.50;3.00;;;;;;;16.65;78.08;99326.53;4117222;28;21083;-87
2022/07/08 04:51:01;;;;;;;6.93;2.90;;;;;;;16.67;77.08;99326.44;4110303;28;20708;-88
2022/07/08 04:53:04;;;;;;;6.33;2.97;;;;;;;16.70;78.35;99328.84;4128068;28;21073;-88
2022/07/08 04:55:27;;;;;;;6.07;2.80;;;;;;;16.73;78.94;99333.88;4110173;28;20643;-87
2022/07/08 04:57:32;;;;;;;10.17;2.80;;;;;;;16.79;79.39;99333.44;4106336;28;20713;-87
2022/07/08 04:59:35;;;;;;;8.43;2.97;;;;;;;16.83;78.44;99341.00;4127036;28;21290;-88
2022/07/08 05:01:38;;;;;;;12.83;3.70;;;;;;;16.86;78.63;99338.16;4114132;28;21051;-88
2022/07/08 05:03:42;;;;;;;6.03;3.27;;;;;;;16.86;78.24;99332.88;4094548;28;20751;-88
2022/07/08 05:05:45;;;;;;;7.03;2.67;;;;;;;16.79;76.01;99334.28;4116955;28;20671;-88
2022/07/08 05:07:48;;;;;;;5.73;2.60;;;;;;;16.82;77.46;99336.69;4115560;28;20694;-88
2022/07/08 05:09:51;;;;;;;7.93;3.13;;;;;;;16.88;78.31;99340.69;4129144;28;21193;-88
2022/07/08 05:11:56;;;;;;;7.10;3.07;;;;;;;16.95;78.79;99341.91;4114642;28;20640;-88
2022/07/08 05:13:59;;;;;;;5.00;2.80;;;;;;;17.00;78.75;99346.75;4125201;28;21098;-87
2022/07/08 05:16:02;;;;;;;5.73;3.63;;;;;;;17.05;78.91;99338.50;4128674;28;21848;-87
2022/07/08 05:18:05;;;;;;;7.20;2.97;;;;;;;17.10;77.10;99338.97;4130663;28;21053;-86
2022/07/08 05:20:11;;;;;;;6.70;2.90;;;;;;;17.14;77.07;99337.81;4127257;28;20917;-87
2022/07/08 05:22:14;;;;;;;8.03;2.50;;;;;;;17.20;76.03;99346.13;4126472;28;20640;-87
2022/07/08 05:24:17;;;;;;;8.43;2.90;;;;;;;17.26;76.21;99343.03;4132306;28;20639;-87
2022/07/08 05:26:20;;;;;;;6.17;2.87;;;;;;;17.32;74.97;99344.34;4092224;29;20636;-87
2022/07/08 05:28:30;;;;;;;5.53;2.90;;;;;;;17.37;75.31;99344.88;4122586;28;21277;-88
2022/07/08 05:30:34;;;;;;;8.27;2.97;;;;;;;17.43;74.78;99349.69;4107224;28;22324;-86
2022/07/08 05:32:38;;;;;;;5.40;4.30;;;;;;;17.45;74.24;99355.66;4108836;28;20679;-87
2022/07/08 05:34:44;;;;;;;6.83;3.20;;;;;;;17.45;73.83;99350.38;4108550;28;20782;-89
2022/07/08 05:36:47;;;;;;;5.23;2.70;;;;;;;17.55;74.42;99352.22;4112703;28;20643;-87
2022/07/08 05:38:50;;;;;;;5.50;2.70;;;;;;;17.59;74.51;99358.91;4124401;28;20658;-88
2022/07/08 05:40:53;;;;;;;7.47;3.07;;;;;;;17.72;75.07;99362.31;4114275;28;20672;-88
2022/07/08 05:42:56;;;;;;;5.07;2.53;;;;;;;17.84;73.56;99364.84;4125240;28;20622;-86
2022/07/08 05:45:00;;;;;;;8.53;3.00;;;;;;;17.92;72.97;99370.41;4112610;28;20635;-87
2022/07/08 05:47:04;;;;;;;6.30;3.07;;;;;;;18.13;74.54;99364.31;4112184;28;20746;-91
2022/07/08 05:49:07;;;;;;;7.97;2.97;;;;;;;18.41;72.38;99373.53;4097529;28;20628;-93
2022/07/08 05:51:11;;;;;;;13.57;3.70;;;;;;;18.67;70.76;99387.22;4106965;28;20637;-92
2022/07/08 05:53:21;;;;;;;7.70;2.70;;;;;;;18.86;69.72;99394.50;4121694;28;20731;-92
2022/07/08 05:55:24;;;;;;;5.57;2.90;;;;;;;19.12;70.17;99386.97;4112966;28;20635;-91
2022/07/08 05:57:27;;;;;;;8.00;2.63;;;;;;;19.40;68.82;99400.44;4117598;28;20659;-92
2022/07/08 05:59:31;;;;;;;6.53;2.80;;;;;;;19.62;67.48;99394.19;4112498;28;20648;-91
2022/07/08 06:01:35;;;;;;;7.20;3.00;;;;;;;19.88;66.49;99401.69;4123218;28;20656;-90
2022/07/08 06:03:38;;;;;;;6.57;2.70;;;;;;;20.13;66.94;99403.91;4131213;28;20672;-91
2022/07/08 06:05:42;;;;;;;5.53;2.50;;;;;;;20.36;65.17;99409.72;4126449;28;20706;-90
2022/07/08 06:07:45;;;;;;;6.13;3.00;;;;;;;20.55;66.04;99398.34;4114254;28;20659;-90
2022/07/08 06:09:48;;;;;;;5.87;2.60;;;;;;;20.83;64.13;99403.78;4123871;28;20673;-90
2022/07/08 06:11:51;;;;;;;7.10;2.67;;;;;;;21.11;63.22;99410.94;4095740;28;21076;-90
2022/07/08 06:13:55;;;;;;;9.97;2.90;;;;;;;21.31;61.67;99406.38;4128102;28;21280;-89
2022/07/08 06:15:58;;;;;;;5.57;2.80;;;;;;;21.48;63.06;99407.53;4112775;28;21077;-89
2022/07/08 06:18:02;;;;;;;6.83;2.47;;;;;;;21.68;62.07;99404.72;4111052;28;20637;-89
2022/07/08 06:20:07;;;;;;;6.90;2.70;;;;;;;21.85;60.93;99407.47;4104099;28;21318;-89
2022/07/08 06:22:10;;;;;;;4.67;2.40;;;;;;;21.89;61.68;99411.53;4126686;28;20666;-89
2022/07/08 06:24:13;;;;;;;5.97;2.53;;;;;;;22.07;61.76;99411.63;4116269;28;20634;-89
2022/07/08 06:26:17;;;;;;;2.93;1.90;;;;;;;22.24;60.39;99415.25;4115530;28;20645;-90
2022/07/08 06:28:20;;;;;;;3.40;2.03;;;;;;;22.31;58.73;99419.03;4108388;28;20669;-92
2022/07/08 06:30:23;;;;;;;5.27;2.20;;;;;;;22.24;57.43;99414.44;4124392;28;20661;-92
2022/07/08 06:32:27;;;;;;;6.23;1.90;;;;;;;22.13;58.10;99411.91;4105656;28;20674;-92
2022/07/08 06:34:31;;;;;;;4.23;2.17;;;;;;;22.22;60.29;99410.22;4124808;28;20644;-92
2022/07/08 06:36:35;;;;;;;5.40;2.40;;;;;;;22.48;58.62;99415.59;4125556;28;20640;-92
2022/07/08 06:38:38;;;;;;;3.70;2.27;;;;;;;22.69;59.72;99418.00;4111326;28;20651;-92
2022/07/08 06:40:41;;;;;;;5.33;2.10;;;;;;;22.91;58.26;99415.78;4112643;28;20999;-92
2022/07/08 06:42:47;;;;;;;6.27;2.20;;;;;;;23.22;60.11;99410.84;4122256;28;20713;-93
2022/07/08 06:44:50;;;;;;;5.90;2.20;;;;;;;23.52;57.89;99422.97;4096746;28;20635;-92
2022/07/08 06:46:53;;;;;;;3.93;1.80;;;;;;;23.69;56.68;99429.19;4108917;28;20628;-92
2022/07/08 06:48:56;;;;;;;5.10;2.10;;;;;;;23.90;55.49;99434.16;4112180;28;20644;-92
2022/07/08 06:51:01;;;;;;;4.03;1.60;;;;;;;23.76;52.62;99432.06;4095394;28;20625;-93
2022/07/08 06:53:04;;;;;;;4.73;1.80;;;;;;;23.68;52.50;99429.31;4115969;28;21225;-92
2022/07/08 06:55:22;;;;;;;6.90;2.40;;;;;;;23.64;53.91;99421.78;4121701;28;20648;-93
2022/07/08 06:57:25;;;;;;;5.57;1.87;;;;;;;23.39;54.09;99423.34;4127341;28;20682;-92
2022/07/08 06:59:28;;;;;;;3.20;1.73;;;;;;;23.33;55.34;99420.44;4126899;28;20629;-92
2022/07/08 07:01:52;;;;;;;5.90;2.00;;;;;;;22.99;55.39;99423.94;4109234;28;21122;-93
2022/07/08 07:03:56;;;;;;;3.40;1.90;;;;;;;22.72;56.62;99418.56;4122617;28;20631;-93
2022/07/08 07:06:00;;;;;;;4.00;2.10;;;;;;;22.35;55.59;99417.72;4123374;28;20671;-93
2022/07/08 07:08:04;;;;;;;4.60;2.10;;;;;;;21.86;55.79;99418.94;4109860;28;20649;-92
2022/07/08 07:10:07;;;;;;;6.93;2.03;;;;;;;22.11;56.15;99419.19;4109550;28;20669;-93
2022/07/08 07:12:10;;;;;;;3.70;1.90;;;;;;;22.58;54.75;99420.88;4124020;28;20690;-93
2022/07/08 07:14:14;;;;;;;4.03;1.70;;;;;;;22.70;55.87;99419.69;4112580;28;20639;-93
2022/07/08 07:16:23;;;;;;;4.80;2.10;;;;;;;22.86;54.12;99418.06;4122813;28;20655;-93
2022/07/08 07:18:26;;;;;;;5.23;1.60;;;;;;;23.36;55.34;99425.47;4126631;28;21274;-93
2022/07/08 07:20:30;;;;;;;3.93;2.00;;;;;;;23.95;55.58;99437.19;4116580;28;20734;-93
2022/07/08 07:22:35;;;;;;;4.10;1.70;;;;;;;24.42;55.92;99439.41;4111469;28;20675;-93
2022/07/08 07:24:38;;;;;;;3.23;1.73;;;;;;;24.82;55.27;99438.63;4109385;28;20731;-93
2022/07/08 07:26:41;;;;;;;5.47;2.23;;;;;;;24.99;51.92;99447.53;4112038;28;20674;-92
2022/07/08 07:28:44;;;;;;;3.10;1.63;;;;;;;24.26;51.63;99442.75;4114062;28;20674;-92
2022/07/08 07:30:48;;;;;;;4.80;2.13;;;;;;;23.78;53.01;99430.88;4123769;28;20642;-93
2022/07/08 07:32:51;;;;;;;4.60;1.90;;;;;;;23.17;53.19;99438.09;4128181;28;20648;-93
2022/07/08 07:34:54;;;;;;;6.27;2.43;;;;;;;22.96;54.16;99430.38;4109280;28;20686;-93
2022/07/08 07:36:58;;;;;;;6.20;2.10;;;;;;;22.82;53.82;99430.00;4110458;28;20669;-93
2022/07/08 07:39:02;;;;;;;3.57;1.67;;;;;;;22.44;53.46;99426.66;4126853;28;20664;-92
2022/07/08 07:41:06;;;;;;;4.57;1.90;;;;;;;22.40;53.15;99436.78;4110428;28;21252;-93
2022/07/08 07:43:09;;;;;;;3.90;1.93;;;;;;;22.66;54.58;99437.78;4107139;28;20657;-93
2022/07/08 07:45:12;;;;;;;5.13;2.37;;;;;;;22.94;53.72;99435.03;4104874;28;20701;-93
2022/07/08 07:47:16;;;;;;;4.70;1.83;;;;;;;23.45;54.94;99446.69;4121831;28;21735;-93
2022/07/08 07:49:19;;;;;;;3.90;1.93;;;;;;;23.96;53.98;99450.38;4089233;29;20641;-93
2022/07/08 07:51:22;;;;;;;5.10;1.67;;;;;;;23.90;52.45;99439.50;4110667;28;20673;-93
2022/07/08 07:53:26;;;;;;;4.10;1.80;;;;;;;23.98;51.68;99440.41;4123936;28;20672;-92
2022/07/08 07:55:31;;;;;;;3.40;1.70;;;;;;;23.82;51.48;99428.78;4110957;28;20733;-93
2022/07/08 07:57:35;;;;;;;6.40;1.87;;;;;;;23.68;51.60;99434.66;4126292;28;20643;-93
2022/07/08 07:59:39;;;;;;;4.37;1.80;;;;;;;23.10;52.62;99421.88;4121215;28;21094;-93
2022/07/08 08:01:43;;;;;;;3.67;1.80;;;;;;;22.83;54.74;99419.19;4107502;28;20662;-92
2022/07/08 08:03:47;;;;;;;3.70;1.80;;;;;;;22.77;55.16;99426.94;4111971;28;20721;-93
2022/07/08 08:05:50;;;;;;;4.50;1.53;;;;;;;22.64;54.93;99429.09;4126366;28;20664;-93
2022/07/08 08:08:19;;;;;;;5.13;1.80;;;;;;;22.47;54.69;99424.56;4078648;29;20746;-93
2022/07/08 08:10:47;;;;;;;5.40;2.27;;;;;;;22.40;56.46;99436.78;4079095;29;20649;-94
2022/07/08 08:12:50;;;;;;;4.10;1.73;;;;;;;22.24;55.63;99433.88;4070394;29;21225;-94
2022/07/08 08:14:53;;;;;;;4.17;2.00;;;;;;;22.13;58.60;99432.31;4081137;29;20646;-93
2022/07/08 08:16:56;;;;;;;6.20;1.63;;;;;;;21.97;58.82;99434.75;4062928;29;20642;-93
2022/07/08 08:18:59;;;;;;;3.77;1.63;;;;;;;21.95;58.27;99434.03;4080577;29;21230;-94
2022/07/08 08:21:03;;;;;;;7.40;1.90;;;;;;;22.01;56.54;99436.97;4063007;29;20647;-93
2022/07/08 08:23:07;;;;;;;5.63;2.00;;;;;;;21.98;56.57;99442.59;4080417;29;20754;-93
2022/07/08 08:25:26;;;;;;;3.80;1.53;;;;;;;21.88;55.53;99433.78;4086599;28;20642;-93
2022/07/08 08:27:31;;;;;;;4.03;1.80;;;;;;;21.82;59.61;99436.16;4123768;28;20674;-93
2022/07/08 08:29:34;;;;;;;2.97;1.73;;;;;;;21.82;56.79;99433.50;4110269;28;20636;-93
2022/07/08 08:31:37;;;;;;;3.63;1.73;;;;;;;21.81;57.23;99434.47;4124439;28;20650;-93
2022/07/08 08:33:41;;;;;;;4.23;2.10;;;;;;;22.26;60.40;99437.22;4111300;28;20676;-93
2022/07/08 08:35:44;;;;;;;3.27;1.63;;;;;;;23.12;58.18;99443.03;4107879;28;20642;-93
2022/07/08 08:37:47;;;;;;;5.43;1.97;;;;;;;23.59;55.11;99451.53;4115778;28;20640;-92
2022/07/08 08:39:51;;;;;;;4.53;1.93;;;;;;;24.10;54.99;99451.66;4110951;28;20658;-93
2022/07/08 08:41:54;;;;;;;4.60;1.80;;;;;;;24.15;53.08;99456.34;4113988;28;21030;-92
2022/07/08 08:43:59;;;;;;;4.27;1.90;;;;;;;23.86;53.28;99454.13;4109292;28;20684;-93
2022/07/08 08:46:02;;;;;;;3.50;1.63;;;;;;;23.71;56.20;99447.69;4113733;28;21014;-94
2022/07/08 08:48:07;;;;;;;3.47;1.93;;;;;;;23.48;53.56;99427.75;4130682;28;20648;-94
2022/07/08 08:52:31;;;;;;;4.97;1.90;;;;;;;23.10;54.99;99434.38;4114605;28;20631;-94
2022/07/08 08:54:35;;;;;;;3.60;1.77;;;;;;;22.87;54.26;99430.41;4098290;28;20642;-94
2022/07/08 08:56:39;;;;;;;4.57;1.57;;;;;;;22.51;55.12;99428.59;4127225;28;20642;-93
2022/07/08 08:58:46;;;;;;;4.30;2.00;;;;;;;22.33;55.21;99430.34;4112314;28;20641;-93
2022/07/08 09:00:51;;;;;;;3.30;1.60;;;;;;;22.08;55.84;99429.25;4130768;28;20697;-93
2022/07/08 09:02:54;;;;;;;3.87;1.87;;;;;;;21.83;55.45;99428.06;4110665;28;20756;-93
2022/07/08 09:04:58;;;;;;;5.70;2.20;;;;;;;21.80;56.64;99424.84;4111006;28;20663;-93
2022/07/08 09:07:01;;;;;;;4.63;1.90;;;;;;;22.32;55.83;99430.50;4112898;28;20724;-93
2022/07/08 09:09:12;;;;;;;6.27;2.10;;;;;;;22.39;56.47;99427.09;4127538;28;20788;-93
2022/07/08 09:11:17;;;;;;;5.00;2.43;;;;;;;22.81;57.62;99431.00;4114247;28;20648;-93
2022/07/08 09:13:23;;;;;;;3.43;1.83;;;;;;;22.91;54.54;99437.94;4128338;28;20659;-93
2022/07/08 09:15:30;;;;;;;3.50;1.93;;;;;;;22.86;54.76;99434.03;4110936;28;20633;-92
2022/07/08 09:17:42;;;;;;;2.60;1.50;;;;;;;22.95;56.19;99434.00;4126164;28;20741;-93
2022/07/08 09:19:48;;;;;;;2.27;1.70;;;;;;;22.72;53.59;99427.38;4112290;28;20633;-93
2022/07/08 09:21:54;;;;;;;4.57;1.77;;;;;;;22.54;55.40;99428.31;4110673;28;20686;-94
2022/07/08 09:23:58;;;;;;;3.00;1.70;;;;;;;22.58;55.97;99434.16;4113348;28;20658;-92
2022/07/08 09:26:28;;;;;;;3.37;1.90;;;;;;;22.61;55.32;99437.38;4091279;28;20648;-93
2022/07/08 09:28:32;;;;;;;5.80;2.37;;;;;;;22.61;56.91;99444.53;4110247;28;21102;-93
2022/07/08 09:30:36;;;;;;;7.40;2.40;;;;;;;22.58;56.73;99444.81;4112346;28;20721;-94
2022/07/08 09:32:40;;;;;;;4.70;2.13;;;;;;;22.56;57.92;99450.28;4108530;28;20630;-94
2022/07/08 09:34:44;;;;;;;3.30;1.63;;;;;;;22.56;56.16;99449.44;4114979;28;20637;-94
2022/07/08 09:36:48;;;;;;;7.07;2.03;;;;;;;22.58;56.49;99445.66;4095496;29;21002;-94
2022/07/08 09:38:51;;;;;;;5.00;1.97;;;;;;;22.73;56.71;99446.84;4128624;28;21200;-93
2022/07/08 09:40:58;;;;;;;4.23;1.80;;;;;;;23.10;56.09;99453.00;4127182;28;20967;-93
2022/07/08 09:43:02;;;;;;;4.07;1.70;;;;;;;23.19;53.96;99451.09;4125324;28;20672;-93
2022/07/08 09:45:09;;;;;;;4.10;1.83;;;;;;;23.29;53.93;99449.22;4111955;28;20701;-93
2022/07/08 09:47:14;;;;;;;5.63;2.17;;;;;;;23.47;54.66;99451.88;4109509;28;20641;-92
2022/07/08 09:49:32;;;;;;;4.30;1.90;;;;;;;23.77;53.58;99453.22;4112942;28;20652;-93